BFIBOEING FLD/KING COUNTY INTL
METARs for airports near BFI, sorted by distance:
N 0 nm 21' KBFI 241714Z 00000KT 10SM FEW006 14/12 A3012
SE 4 nm 32' KRNT 241653Z 35007KT 10SM SCT007 14/11 A3011
S 4 nm 432' KSEA 241653Z 36006KT 7SM SCT005 14/11 A3012
W 18 nm 444' KPWT 241656Z 04009KT 10SM CLR 17/11 A3011
SW 19 nm 294' KTIW 241653Z 36006KT 10SM FEW009 13/11 A3012
N 22 nm 607' KPAE 241724Z 36006KT 10SM BCFG SCT001 12/11 A3013
S 24 nm 322' KTCM 241658Z 03005KT 10SM CLR 15/12 A3011
S 25 nm 537' KPLU 241715Z 00000KT 10SM CLR 15/12 A3011
S 29 nm 301' KGRF 241658Z 03003KT 10SM CLR 15/11 A3010
N 38 nm 141' KAWO 241724Z 33004KT 10SM FEW005 13/12 A3013
SW 38 nm 272' KSHN 241653Z VRB05KT 10SM CLR 15/11 A3009
SW 41 nm 207' KOLM 241654Z 06004KT 8SM FEW008 14/12 A3011
N 51 nm 47' KNUW 241656Z 29005KT 10SM FEW009 SCT250 13/11 A3017
N 56 nm 145' KBVS 241715Z 30005KT 7SM CLR 17/12 A3013
NW 57 nm 13' KNOW 241715Z 10006KT 10SM CLR 14/11 A3014
SW 58 nm 177' KCLS 241615Z 00000KT 10SM BKN009 13/13 A3011
NW 59 nm 291' KCLM 241653Z VRB06KT 10SM CLR 17/11 A3014
NW 66 nm 112' KFHR 241653Z 01007KT 10SM CLR 16/12 A3014
SW 74 nm 17' KHQM 241653Z 08009KT 10SM CLR 19/12 A3006
N 74 nm 34' KORS 241655Z 34003KT 10SM CLR 14/13 A3014
N 76 nm 171' KBLI 241653Z 02006KT 10SM CLR 16/12 A3014
E 78 nm 1763' KELN 241653Z 00000KT 10SM CLR 14/06 A3021
NW 80 nm 64' CYYJ 241700Z 28004KT 30SM SCT250 16/09 A3014
E 85 nm 1248' KEAT 241655Z 26004KT 10SM CLR 15/04 A3021
S 88 nm 20' KKLS 241656Z VRB05KT 10SM CLR 16/11 A3007
SE 92 nm 1098' KYKM 241653Z 32003KT 10SM CLR 18/06 A3020
W 94 nm 193' KUIL 241653Z 14003KT 10SM CLR 17/10 A3008
TAFs for airports near BFI, sorted by distance:
N 0 nm 21' KBFI KBFI 241721Z 2418/2518 VRB04KT P6SM FEW006
  FM241900 30008KT P6SM FEW060
  FM242100 32006KT P6SM SCT250
  FM250600 00000KT P6SM SCT250
  FM251400 17003KT 6SM BR BKN250
S 4 nm 432' KSEA KSEA 241721Z 2418/2524 36009KT P6SM SCT005
  TEMPO 2418/2419 SCT005
  FM242100 34008KT P6SM SCT250
  FM251100 20006KT P6SM SCT250
  FM251400 20006KT 3SM BR BKN004
  FM251600 20006KT P6SM SCT250
W 18 nm 444' KPWT TAF KPWT 241721Z 2418/2518 03009KT P6SM SKC
  FM242200 03009KT P6SM FEW250
  FM251100 18002KT 3SM BR OVC002
N 22 nm 607' KPAE KPAE 241721Z 2418/2518 36006KT 1/2SM FG VV001
  TEMPO 2418/2419 1/2SM FG VV001
  FM242100 33005KT P6SM SCT050
  FM251300 20003KT 1/4SM FG OVC003
S 24 nm 322' KTCM TAF KTCM 241300Z 2413/2519 VRB06KT 9999 OVC006 QNH3007INS
  TEMPO 2413/2416 BKN007 OVC010
  BECMG 2415/2416 02006KT 9999 FEW250 QNH2987INS
  BECMG 2504/2505 VRB06KT 9999 FEW250 QNH2984INS TX24/2421Z TN09/2413Z
S 29 nm 301' KGRF TAF
  AMD KGRF 241400Z 2414/2519 35005KT 3200 BR OVC008 QNH2985INS
  BECMG 2415/2416 35005KT 9999 NSW SKC QNH2984INS
  BECMG 2510/2511 03003KT 2000 BR SKC QNH2984INS
  BECMG 2515/2516 03003KT 9999 NSW SKC QNH2984INS TX22/2421Z TN10/2414Z
SW 41 nm 207' KOLM KOLM 241721Z 2418/2518 06004KT P6SM FEW008
  FM242000 05006KT P6SM SCT250
  FM250500 00000KT P6SM SCT250
  FM251100 00000KT 1SM BR OVC002
  FM251400 18002KT 1/2SM FG OVC002
N 51 nm 47' KNUW TAF KNUW 2415/2515 VRB06KT 8000 BR FEW003 SCT250 QNH3014INS
  TEMPO 2415/2417 3200 BR FEW003 SCT250
  FM242100 27008KT 9999 SCT250 QNH3004INS
  FM250400 VRB06KT 9999 SCT150 SCT250 QNH2994INS
  TEMPO 2511/2515 3200 BR FEW003 SCT250 T15/2422Z T08/2512Z FS30037
NW 59 nm 291' KCLM KCLM 241721Z 2418/2518 VRB06KT P6SM SKC
  FM250100 VRB04KT P6SM BKN250
  FM251200 29006KT P6SM BKN250
SW 74 nm 17' KHQM TAF KHQM 241721Z 2418/2518 07009KT P6SM SKC
  FM242100 25008KT P6SM SCT250
  FM251100 25008KT P6SM OVC004
  FM251400 18004KT 1 1/2SM BR BKN003
N 76 nm 171' KBLI KBLI 241721Z 2418/2518 02006KT P6SM SKC
  FM242000 29006KT P6SM SCT250
  FM250400 18003KT P6SM SCT250
  FM251000 18009KT 6SM BR SCT005
E 85 nm 1248' KEAT TAF KEAT 241733Z 2418/2518 26004KT P6SM SKC
  FM250000 VRB03KT P6SM BKN250
  FM250600 32006KT P6SM SCT250
SE 92 nm 1098' KYKM TAF KYKM 241720Z 2418/2518 VRB04KT P6SM SKC
  FM250300 28006KT P6SM SCT250

Shortcut to this page: http://wxbay.com.

Data may contain errors.